Aérodrome :
LOGIN :

S'inscrire | Disclaimer

   EN    FR    IT 

 










Légende :    VFR   VFR Marginal   IFR   IFR Intensif   IFR Très Intensif
Visi : 
Plafond : 
>= 8 km
>= 3000ft
5 à 8 km
1000 à 3000 ft
1500m à 5 km
500 à 1000 ft
800 à 1500m
200 à 500 ft
< 800m
< 200 ft
Symboles :   Orages  Brouillard  Fortes neiges  Fortes précipitations  Vent > 20 kt
SIGMETs :   Divers  Orages  Givrage  Turbulence  Onde Orograph.  Cendres Volcan.







- Altitude de l'aérodrome : 15 ft
- Code IATA : BHD
- Voir les cartes d'approche


EGAC - George Best Belfast City

DERNIER METAR :
  • 200520Z AUTO 32006KT 280V350 9999 FEW016/// BKN037/// BKN048/// 14/13 Q1000

METARs EXPIRÉS :
  • 200450Z AUTO 31006KT 9999 BKN014/// OVC040/// 14/13 Q1000
  • 200420Z AUTO 31006KT 9999 BKN009/// OVC014/// 14/14 Q0999
  • 200350Z AUTO VRB01KT 9999 BKN007/// OVC015/// 14/14 Q0999
  • 200320Z AUTO 02002KT 9999 SCT006/// BKN010/// BKN017/// 14/14 Q0998
  • 200250Z AUTO 02003KT 8000 SCT008/// SCT013/// 14/14 Q0998

TAF TAF EGAC
Valide du 20 à 06h jusqu'au 20 à 15h UTC


200459Z 2006/2015 30010KT 9999 BKN009
BECMG 2006/2009 FEW014 BKN030
PROB30
TEMPO 2011/2015 9000 -SHRA
ATIS : +44 02890 935 124
Pas de NOTAMs connus pour ce terrain.



MET'MAP, la Météo Aéronautique d'un coup d'oeil ! - Copyright ORBIFLY Décembre 2007 - Disclaimer

ORBIFLY MET'MAP TEAM :

Programmation & Développement : Alexandra Zaïnal
Conception & Développement : Baudouin d'Aumeries
Co-Programmation & Développement : Marc-Olivier Méhu
Soutien technique & logistique : Manuel Goepfert

Contact : metmap@orbifly.com




SOURCES & CREDITS :

   NOAA